Time;durP1;ratioP1;P1;durP2;ratioP2;P2;SDS_P1;SDS_P2;PMS_P1;PMS_P2;Temp;Humidity;BMP_temperature;BMP_pressure;BME280_temperature;BME280_humidity;BME280_pressure;Samples;Min_cycle;Max_cycle;Signal;HPM_P1;HPM_P2
2022/05/29 00:01:15;;;;;;;8.55;4.45;;;9.80;99.90;;;;;;4982363;28;20049;-77
2022/05/29 00:03:43;;;;;;;11.20;4.50;;;9.80;99.90;;;;;;4996845;28;20049;-81
2022/05/29 00:06:12;;;;;;;13.35;5.43;;;9.80;99.90;;;;;;4983689;28;20578;-79
2022/05/29 00:08:44;;;;;;;15.95;5.50;;;9.80;99.90;;;;;;4984639;28;20567;-79
2022/05/29 00:11:13;;;;;;;;;;;9.80;99.90;;;;;;4978360;28;20052;-78
2022/05/29 00:13:41;;;;;;;12.40;4.97;;;9.90;99.90;;;;;;4985869;28;20390;-79
2022/05/29 00:16:07;;;;;;;12.23;4.78;;;9.90;99.90;;;;;;4992843;28;20051;-79
2022/05/29 00:18:37;;;;;;;13.15;4.00;;;9.90;99.90;;;;;;5006874;28;20160;-79
2022/05/29 00:21:05;;;;;;;10.10;4.53;;;9.90;99.90;;;;;;5002749;28;20433;-79
2022/05/29 00:23:37;;;;;;;15.60;5.22;;;9.90;99.90;;;;;;4987397;28;20048;-79
2022/05/29 00:26:03;;;;;;;14.02;4.20;;;9.90;99.90;;;;;;5017056;28;20553;-79
2022/05/29 00:28:29;;;;;;;13.35;4.97;;;9.90;99.90;;;;;;4999278;28;20048;-79
2022/05/29 00:30:55;;;;;;;18.75;5.20;;;9.90;99.90;;;;;;4986393;28;20041;-79
2022/05/29 00:33:21;;;;;;;13.90;5.63;;;9.90;99.90;;;;;;4965101;28;20041;-79
2022/05/29 00:35:47;;;;;;;13.02;5.07;;;9.80;99.90;;;;;;4982342;28;20122;-79
2022/05/29 00:38:14;;;;;;;13.80;4.97;;;9.90;99.90;;;;;;5004998;28;20087;-79
2022/05/29 00:40:46;;;;;;;12.48;4.85;;;9.80;99.90;;;;;;4984380;28;20139;-79
2022/05/29 00:43:12;;;;;;;10.90;4.80;;;9.80;99.90;;;;;;5002706;28;20078;-79
2022/05/29 00:46:06;;;;;;;11.10;5.00;;;9.80;99.90;;;;;;4999632;28;20049;-78
2022/05/29 00:48:32;;;;;;;13.95;5.38;;;9.70;99.90;;;;;;5001464;28;20489;-78
2022/05/29 00:51:01;;;;;;;13.90;4.93;;;9.60;99.90;;;;;;4986155;28;20160;-79
2022/05/29 00:53:30;;;;;;;14.40;5.60;;;9.70;99.90;;;;;;4991759;28;20119;-79
2022/05/29 00:56:03;;;;;;;11.15;5.30;;;9.70;99.90;;;;;;4995915;28;20124;-79
2022/05/29 00:58:30;;;;;;;16.13;5.80;;;9.70;99.90;;;;;;4992268;28;20037;-79
2022/05/29 01:00:57;;;;;;;15.40;6.10;;;9.70;99.90;;;;;;5015734;28;20053;-79
2022/05/29 01:03:24;;;;;;;11.93;5.30;;;9.70;99.90;;;;;;4998229;28;20579;-79
2022/05/29 01:05:50;;;;;;;17.13;6.00;;;9.60;99.90;;;;;;4966392;28;20041;-79
2022/05/29 01:08:20;;;;;;;21.27;5.55;;;9.60;99.90;;;;;;5004607;28;20048;-78
2022/05/29 01:10:49;;;;;;;12.13;5.70;;;9.60;99.90;;;;;;4979416;28;20045;-79
2022/05/29 01:13:27;;;;;;;12.27;5.13;;;9.50;99.90;;;;;;5018273;28;20573;-79
2022/05/29 01:16:21;;;;;;;19.10;5.75;;;9.50;99.90;;;;;;4995452;28;20077;-79
2022/05/29 01:19:12;;;;;;;12.77;5.55;;;9.50;99.90;;;;;;5015843;28;20499;-79
2022/05/29 01:21:44;;;;;;;13.05;5.50;;;9.40;99.90;;;;;;4991921;28;20050;-79
2022/05/29 01:24:29;;;;;;;13.07;5.72;;;9.40;99.90;;;;;;5006838;28;20103;-79
2022/05/29 01:27:10;;;;;;;14.13;5.57;;;9.40;99.90;;;;;;5018170;28;20498;-79
2022/05/29 01:30:14;;;;;;;14.98;5.47;;;9.40;99.90;;;;;;5006417;28;20388;-79
2022/05/29 01:32:58;;;;;;;15.07;5.50;;;9.40;99.90;;;;;;4986769;28;20657;-79
2022/05/29 01:35:54;;;;;;;16.38;6.20;;;9.40;99.90;;;;;;5029194;28;20122;-79
2022/05/29 01:39:00;;;;;;;17.75;5.97;;;9.50;99.90;;;;;;5013744;28;20060;-79
2022/05/29 01:41:52;;;;;;;19.63;5.28;;;9.50;99.90;;;;;;4993236;28;20080;-79
2022/05/29 01:44:25;;;;;;;14.63;6.10;;;9.50;99.90;;;;;;4996270;28;20049;-79
2022/05/29 01:46:57;;;;;;;14.90;5.82;;;9.60;99.90;;;;;;5028094;28;20045;-79
2022/05/29 01:49:30;;;;;;;14.60;5.80;;;9.60;99.90;;;;;;4977962;28;20044;-78
2022/05/29 01:52:07;;;;;;;21.92;6.13;;;9.60;99.90;;;;;;5001448;28;20044;-79
2022/05/29 01:54:38;;;;;;;18.33;5.53;;;9.60;99.90;;;;;;5001239;28;20547;-79
2022/05/29 01:57:17;;;;;;;15.93;5.80;;;9.60;99.90;;;;;;4976500;28;20049;-80
2022/05/29 01:59:57;;;;;;;18.48;5.72;;;9.60;99.90;;;;;;4985603;28;20308;-79
2022/05/29 02:02:39;;;;;;;14.35;5.75;;;9.60;99.90;;;;;;5009772;28;20048;-79
2022/05/29 02:05:14;;;;;;;17.83;5.60;;;9.60;99.90;;;;;;4996352;28;20057;-79
2022/05/29 02:07:48;;;;;;;13.75;5.70;;;9.60;99.90;;;;;;5000130;28;20501;-79
2022/05/29 02:10:26;;;;;;;16.63;7.20;;;9.50;99.90;;;;;;5005396;28;20387;-79
2022/05/29 02:12:58;;;;;;;18.77;4.78;;;9.50;99.90;;;;;;4992715;28;20049;-79
2022/05/29 02:15:28;;;;;;;;;;;9.50;99.90;;;;;;4992225;28;20059;-78
2022/05/29 02:17:58;;;;;;;17.33;5.55;;;9.50;99.90;;;;;;5001850;28;19924;-78
2022/05/29 02:20:29;;;;;;;14.77;5.45;;;9.50;99.90;;;;;;4990207;28;20037;-79
2022/05/29 02:23:04;;;;;;;13.75;5.97;;;9.40;99.90;;;;;;4986162;28;20507;-78
2022/05/29 02:25:31;;;;;;;15.38;5.95;;;9.50;99.90;;;;;;4999019;28;20044;-78
2022/05/29 02:28:26;;;;;;;16.25;5.75;;;9.40;99.90;;;;;;4954989;28;20131;-78
2022/05/29 02:31:37;;;;;;;15.18;5.82;;;9.40;99.90;;;;;;5003167;28;20044;-79
2022/05/29 02:34:10;;;;;;;13.23;4.18;;;9.40;99.90;;;;;;4917743;28;20291;-78
2022/05/29 02:36:58;;;;;;;18.40;5.55;;;9.40;99.90;;;;;;4921303;28;20059;-78
2022/05/29 02:39:59;;;;;;;13.10;5.10;;;9.40;99.90;;;;;;4982436;28;20055;-78
2022/05/29 02:42:44;;;;;;;15.77;5.30;;;9.40;99.90;;;;;;4985838;28;20463;-78
2022/05/29 02:45:32;;;;;;;13.55;4.93;;;9.40;99.90;;;;;;4995613;28;20047;-79
2022/05/29 02:48:25;;;;;;;14.23;5.45;;;9.30;99.90;;;;;;4963031;28;20546;-78
2022/05/29 02:51:16;;;;;;;16.25;5.47;;;9.40;99.90;;;;;;4984523;28;20045;-78
2022/05/29 02:53:44;;;;;;;16.60;6.03;;;9.30;99.90;;;;;;4972783;28;20661;-79
2022/05/29 02:56:11;;;;;;;15.48;5.53;;;9.40;99.90;;;;;;4979719;28;20057;-79
2022/05/29 02:58:40;;;;;;;11.85;4.80;;;9.40;99.90;;;;;;4981732;28;20045;-79
2022/05/29 03:01:19;;;;;;;14.55;4.93;;;9.30;99.90;;;;;;5010402;28;20067;-79
2022/05/29 03:03:52;;;;;;;15.32;4.90;;;9.30;99.90;;;;;;4987976;28;20041;-80
2022/05/29 03:06:42;;;;;;;11.27;4.93;;;9.30;99.90;;;;;;4978834;28;20132;-79
2022/05/29 03:09:27;;;;;;;12.68;5.57;;;9.30;99.90;;;;;;4975765;28;20727;-78
2022/05/29 03:11:55;;;;;;;17.30;5.35;;;9.30;99.90;;;;;;4998520;28;20064;-79
2022/05/29 03:14:55;;;;;;;13.38;5.47;;;9.30;99.90;;;;;;4991680;28;20473;-79
2022/05/29 03:17:44;;;;;;;14.80;5.38;;;9.30;99.90;;;;;;4988480;28;20906;-79
2022/05/29 03:20:49;;;;;;;11.73;5.40;;;9.30;99.90;;;;;;5005422;28;20660;-79
2022/05/29 03:23:21;;;;;;;17.40;6.10;;;9.30;99.90;;;;;;5011683;28;20054;-78
2022/05/29 03:25:52;;;;;;;19.05;6.18;;;9.30;99.90;;;;;;5014282;28;20056;-79
2022/05/29 03:28:21;;;;;;;14.55;5.65;;;9.20;99.90;;;;;;5028395;28;20431;-79
2022/05/29 03:30:49;;;;;;;20.75;5.43;;;9.20;99.90;;;;;;5009473;28;20061;-79
2022/05/29 03:33:16;;;;;;;16.00;5.85;;;9.20;99.90;;;;;;5016462;28;20077;-80
2022/05/29 03:36:03;;;;;;;18.30;5.32;;;9.20;99.90;;;;;;4997156;28;20049;-79
2022/05/29 03:38:29;;;;;;;17.65;5.40;;;9.30;99.90;;;;;;5001592;28;20079;-79
2022/05/29 03:40:56;;;;;;;13.55;5.45;;;9.30;99.90;;;;;;4976795;28;20045;-78
2022/05/29 03:43:22;;;;;;;13.77;4.93;;;9.40;99.90;;;;;;5018760;28;20119;-78
2022/05/29 03:45:48;;;;;;;12.70;4.97;;;9.40;99.90;;;;;;5034141;28;20049;-79
2022/05/29 03:48:14;;;;;;;13.48;4.80;;;9.50;99.90;;;;;;4982617;28;20056;-79
2022/05/29 03:50:40;;;;;;;12.00;4.90;;;9.50;99.90;;;;;;5002328;28;20045;-79
2022/05/29 03:53:07;;;;;;;14.90;4.75;;;9.50;99.90;;;;;;4971141;28;20048;-80
2022/05/29 03:55:34;;;;;;;15.75;4.38;;;9.60;99.90;;;;;;5019547;28;20601;-79
2022/05/29 03:58:00;;;;;;;13.02;4.00;;;9.60;99.90;;;;;;5004518;28;20070;-79
2022/05/29 04:00:26;;;;;;;11.45;3.65;;;9.60;99.90;;;;;;4988822;28;20495;-79
2022/05/29 04:02:53;;;;;;;10.52;3.92;;;9.60;99.90;;;;;;5001707;28;20053;-79
2022/05/29 04:05:21;;;;;;;11.23;3.80;;;9.60;99.90;;;;;;5000765;28;20056;-79
2022/05/29 04:13:28;;;;;;;11.80;4.22;;;9.80;99.90;;;;;;5033447;28;20053;-79
2022/05/29 04:15:55;;;;;;;13.40;4.38;;;9.80;99.90;;;;;;4982518;28;20052;-79
2022/05/29 04:18:22;;;;;;;16.23;4.78;;;9.80;99.90;;;;;;4970173;28;20315;-79
2022/05/29 04:20:54;;;;;;;14.60;3.85;;;9.80;99.90;;;;;;4998732;28;20045;-79
2022/05/29 04:23:20;;;;;;;12.63;3.80;;;9.80;99.90;;;;;;4969959;28;20808;-79
2022/05/29 04:25:47;;;;;;;17.83;4.13;;;9.80;99.90;;;;;;4968267;28;20049;-79
2022/05/29 04:28:15;;;;;;;12.60;4.05;;;9.90;99.90;;;;;;4975355;28;20545;-78
2022/05/29 04:30:42;;;;;;;8.68;3.17;;;9.90;99.90;;;;;;4991298;28;20094;-77
2022/05/29 04:33:14;;;;;;;15.15;4.07;;;9.90;99.90;;;;;;4990428;28;20349;-78
2022/05/29 04:35:47;;;;;;;13.05;4.03;;;9.90;99.90;;;;;;4972500;28;20161;-78
2022/05/29 04:38:15;;;;;;;12.75;4.45;;;10.00;99.90;;;;;;4967502;28;20056;-78
2022/05/29 04:40:42;;;;;;;13.32;4.22;;;9.90;99.90;;;;;;4987680;28;20698;-78
2022/05/29 04:43:10;;;;;;;11.45;3.90;;;10.00;99.90;;;;;;4984436;28;20517;-78
2022/05/29 04:45:39;;;;;;;15.40;4.38;;;10.00;99.90;;;;;;4986423;28;20036;-79
2022/05/29 04:48:06;;;;;;;11.77;4.22;;;10.10;99.90;;;;;;4988644;28;20076;-79
2022/05/29 04:50:32;;;;;;;9.85;4.03;;;10.10;99.90;;;;;;4983810;28;20042;-79
2022/05/29 04:52:58;;;;;;;14.02;4.25;;;10.10;99.90;;;;;;4954775;28;20163;-79
2022/05/29 04:55:24;;;;;;;9.38;3.60;;;10.10;99.90;;;;;;4985288;28;20142;-79
2022/05/29 04:57:50;;;;;;;13.27;3.88;;;10.20;99.90;;;;;;4986254;28;20547;-80
2022/05/29 05:00:17;;;;;;;11.10;3.65;;;10.10;99.90;;;;;;4999922;28;20502;-81
2022/05/29 05:02:47;;;;;;;10.80;3.35;;;10.20;99.90;;;;;;4986901;28;20056;-81
2022/05/29 05:05:13;;;;;;;8.73;3.22;;;10.20;99.90;;;;;;4971563;28;20072;-79
2022/05/29 05:07:43;;;;;;;11.85;3.40;;;10.20;99.90;;;;;;4971746;28;22153;-80
2022/05/29 05:10:12;;;;;;;11.93;3.90;;;10.20;99.90;;;;;;4986646;28;20073;-80
2022/05/29 05:12:47;;;;;;;12.80;3.50;;;10.30;99.90;;;;;;4982550;28;20064;-79
2022/05/29 05:15:15;;;;;;;10.20;3.72;;;10.30;99.90;;;;;;4994655;28;20502;-79
2022/05/29 05:17:42;;;;;;;10.93;3.60;;;10.40;99.90;;;;;;5000853;28;21231;-80
2022/05/29 05:20:09;;;;;;;13.70;3.28;;;10.40;99.90;;;;;;5018639;28;20071;-79
2022/05/29 05:22:35;;;;;;;12.68;3.70;;;10.40;99.90;;;;;;4969084;28;20050;-79
2022/05/29 05:25:05;;;;;;;9.57;3.67;;;10.30;99.90;;;;;;4986522;28;20314;-80
2022/05/29 05:27:31;;;;;;;14.68;3.67;;;10.40;99.90;;;;;;5016107;28;20192;-80
2022/05/29 05:29:58;;;;;;;13.05;3.55;;;10.30;99.90;;;;;;4967569;28;20037;-80
2022/05/29 05:32:24;;;;;;;11.65;3.42;;;10.20;99.90;;;;;;4999063;28;20049;-80
2022/05/29 05:34:50;;;;;;;11.50;3.03;;;10.20;99.90;;;;;;5002146;28;20490;-80
2022/05/29 05:37:18;;;;;;;13.40;3.72;;;10.20;99.90;;;;;;4979737;28;20099;-81
2022/05/29 05:39:44;;;;;;;11.60;3.15;;;10.20;99.90;;;;;;4983354;28;20044;-81
2022/05/29 05:42:11;;;;;;;12.95;3.78;;;10.20;99.90;;;;;;4997359;28;20153;-80
2022/05/29 05:44:37;;;;;;;11.65;3.97;;;10.30;99.90;;;;;;5001766;28;20127;-81
2022/05/29 05:47:03;;;;;;;14.90;3.10;;;10.20;99.90;;;;;;4998541;28;20052;-80
2022/05/29 05:49:32;;;;;;;14.93;3.80;;;10.20;99.90;;;;;;5018684;28;20045;-81
2022/05/29 05:52:02;;;;;;;11.18;3.65;;;10.30;99.90;;;;;;5001182;28;20033;-80
2022/05/29 05:54:31;;;;;;;13.38;3.30;;;10.40;99.90;;;;;;4985259;28;20079;-81
2022/05/29 05:57:00;;;;;;;14.95;3.83;;;10.50;99.90;;;;;;5001542;28;20124;-81
2022/05/29 05:59:32;;;;;;;10.65;3.03;;;10.70;99.90;;;;;;4985951;28;20266;-81
2022/05/29 06:01:58;;;;;;;10.77;2.92;;;10.80;99.90;;;;;;5000822;28;20521;-81
2022/05/29 06:04:24;;;;;;;11.65;3.13;;;10.90;99.90;;;;;;5008282;28;20052;-84
2022/05/29 06:06:50;;;;;;;14.23;3.50;;;11.00;99.90;;;;;;5003162;28;20052;-82
2022/05/29 06:09:20;;;;;;;20.58;3.20;;;11.10;99.90;;;;;;4970541;28;20045;-80
2022/05/29 06:11:46;;;;;;;9.23;3.10;;;11.10;99.90;;;;;;5000135;28;20033;-82
2022/05/29 06:14:12;;;;;;;10.55;3.50;;;11.20;99.90;;;;;;4970439;28;20132;-80
2022/05/29 06:16:39;;;;;;;15.23;4.22;;;11.20;99.90;;;;;;4993791;28;20804;-81
2022/05/29 06:22:51;;;;;;;14.50;3.63;;;11.20;99.90;;;;;;5017286;28;20407;-81
2022/05/29 06:30:05;;;;;;;10.77;3.30;;;11.20;99.90;;;;;;4995401;28;20136;-81
2022/05/29 06:32:45;;;;;;;13.20;3.53;;;11.30;99.90;;;;;;4956056;28;20049;-81
2022/05/29 06:35:36;;;;;;;;;;;;;;;;;;;;;
2022/05/29 06:39:22;;;;;;;12.13;3.65;;;11.40;99.90;;;;;;4974259;28;20496;-81
2022/05/29 06:42:49;;;;;;;15.95;3.53;;;11.50;99.90;;;;;;4985504;28;20053;-79
2022/05/29 06:50:10;;;;;;;13.27;3.90;;;11.60;99.90;;;;;;4968059;28;20059;-82
2022/05/29 06:52:47;;;;;;;17.02;3.95;;;11.40;99.90;;;;;;4926319;28;20047;-82
2022/05/29 06:55:17;;;;;;;16.60;4.28;;;11.30;99.90;;;;;;4983246;28;20041;-82
2022/05/29 06:57:44;;;;;;;10.45;3.00;;;11.20;99.90;;;;;;5001258;28;20076;-83
2022/05/29 07:08:47;;;;;;;14.93;3.38;;;11.30;99.90;;;;;;4999844;28;20400;-83
2022/05/29 07:11:23;;;;;;;13.50;3.10;;;11.40;99.90;;;;;;5006167;28;20049;-83
2022/05/29 07:14:04;;;;;;;11.90;2.97;;;11.40;99.90;;;;;;5016542;28;20062;-81
2022/05/29 07:16:38;;;;;;;19.15;4.45;;;11.30;99.90;;;;;;4985096;28;20120;-82
2022/05/29 07:19:09;;;;;;;12.63;3.53;;;11.20;99.90;;;;;;4981958;28;20057;-82
2022/05/29 07:21:41;;;;;;;13.15;3.00;;;11.00;99.90;;;;;;4997575;28;20096;-82
2022/05/29 07:24:19;;;;;;;15.10;4.05;;;11.10;99.90;;;;;;5016078;28;20502;-81
2022/05/29 07:26:48;;;;;;;14.60;3.33;;;11.20;99.90;;;;;;4982083;28;20116;-81
2022/05/29 07:29:19;;;;;;;14.35;2.63;;;11.20;99.90;;;;;;4983154;28;20541;-81
2022/05/29 07:35:18;;;;;;;12.52;3.17;;;11.20;99.90;;;;;;5001530;28;20137;-80
2022/05/29 07:37:50;;;;;;;12.32;3.15;;;11.20;99.90;;;;;;5003405;28;20095;-80
2022/05/29 07:40:26;;;;;;;13.57;4.57;;;11.20;99.90;;;;;;4963095;28;20133;-81
2022/05/29 07:45:57;;;;;;;13.77;2.95;;;11.40;99.90;;;;;;5001980;28;20057;-81
2022/05/29 07:48:27;;;;;;;17.58;4.57;;;11.50;99.90;;;;;;4979704;28;20041;-80
2022/05/29 07:50:54;;;;;;;16.42;3.25;;;11.60;99.90;;;;;;5002660;28;20139;-81
2022/05/29 07:53:21;;;;;;;15.70;2.97;;;11.70;99.90;;;;;;4965628;28;20179;-82
2022/05/29 07:55:47;;;;;;;14.38;3.50;;;11.80;99.90;;;;;;4972710;28;20087;-82
2022/05/29 07:58:16;;;;;;;10.70;3.13;;;11.90;99.90;;;;;;4955235;28;20455;-82
2022/05/29 08:00:43;;;;;;;12.85;3.25;;;12.10;99.90;;;;;;4986479;28;20044;-83
2022/05/29 08:03:10;;;;;;;9.23;2.70;;;12.20;99.90;;;;;;4999973;28;20045;-82
2022/05/29 08:05:37;;;;;;;14.82;6.63;;;12.40;99.90;;;;;;4971609;28;20048;-81
2022/05/29 08:08:08;;;;;;;11.60;2.47;;;12.60;99.90;;;;;;4973994;28;20082;-81
2022/05/29 08:10:36;;;;;;;10.48;2.60;;;12.70;99.90;;;;;;5000214;28;20045;-81
2022/05/29 08:23:09;;;;;;;;;;;;;;;;;;;;;
2022/05/29 08:43:22;;;;;;;12.50;4.35;;;12.00;99.90;;;;;;4957366;28;20053;-81
2022/05/29 08:45:56;;;;;;;14.93;8.48;;;12.00;99.90;;;;;;4995824;28;20546;-82
2022/05/29 08:49:16;;;;;;;8.80;2.05;;;12.00;99.90;;;;;;4981161;28;20815;-81
2022/05/29 08:58:32;;;;;;;10.95;1.85;;;12.30;99.90;;;;;;4826742;29;20241;-80
2022/05/29 09:02:40;;;;;;;;;;;;;;;;;;;;;
2022/05/29 09:06:58;;;;;;;10.43;1.92;;;12.30;99.90;;;;;;4870704;29;20052;-80
2022/05/29 09:15:43;;;;;;;6.05;1.17;;;12.40;99.90;;;;;;4789237;29;20395;-82
2022/05/29 09:23:16;;;;;;;11.32;1.95;;;12.00;99.90;;;;;;4759950;29;20058;-81
2022/05/29 09:26:39;;;;;;;5.60;1.60;;;11.80;99.90;;;;;;4750254;30;20047;-81
2022/05/29 09:30:09;;;;;;;8.02;3.15;;;12.00;99.90;;;;;;4733964;30;20555;-81
2022/05/29 09:34:23;;;;;;;8.20;2.33;;;12.30;99.90;;;;;;4701469;30;20194;-81
2022/05/29 09:38:32;;;;;;;5.85;2.03;;;12.40;99.90;;;;;;4686386;30;20052;-81
2022/05/29 09:42:19;;;;;;;7.93;2.00;;;12.70;99.90;;;;;;4664998;30;20061;-80
2022/05/29 09:45:28;;;;;;;7.43;1.80;;;12.90;99.90;;;;;;4648544;30;20062;-81
2022/05/29 09:57:16;;;;;;;8.82;3.58;;;13.60;99.90;;;;;;4663104;30;20128;-81
2022/05/29 10:05:41;;;;;;;;;;;;;;;;;;;;;
2022/05/29 10:14:37;;;;;;;7.97;1.70;;;13.60;99.90;;;;;;5089137;27;20348;-60
2022/05/29 10:17:15;;;;;;;10.43;2.38;;;13.40;99.90;;;;;;5070295;28;20041;-61
2022/05/29 10:19:45;;;;;;;9.88;2.03;;;13.50;99.90;;;;;;5085459;28;20064;-59
2022/05/29 10:22:37;;;;;;;11.95;1.73;;;13.60;99.90;;;;;;5067705;28;20150;-59
2022/05/29 10:25:19;;;;;;;8.68;1.33;;;13.60;99.90;;;;;;5057885;28;20042;-56
2022/05/29 10:27:48;;;;;;;4.20;2.10;;;13.30;99.90;;;;;;5055330;28;20471;-57
2022/05/29 10:30:34;;;;;;;6.35;1.75;;;13.40;99.90;;;;;;5089932;28;20055;-57
2022/05/29 10:33:09;;;;;;;7.18;2.15;;;13.40;99.90;;;;;;5076896;28;20056;-57
2022/05/29 10:35:39;;;;;;;8.35;1.67;;;13.40;99.90;;;;;;5074329;28;20392;-57
2022/05/29 10:38:26;;;;;;;7.43;1.50;;;13.20;99.90;;;;;;5088038;28;20048;-58
2022/05/29 10:40:56;;;;;;;7.68;2.38;;;12.90;99.90;;;;;;5076477;28;20550;-57
2022/05/29 10:43:47;;;;;;;7.75;2.38;;;12.80;99.90;;;;;;5043039;28;20044;-57
2022/05/29 10:46:40;;;;;;;8.48;2.00;;;12.60;99.90;;;;;;5073255;28;20541;-57
2022/05/29 10:49:30;;;;;;;6.32;1.88;;;12.60;99.90;;;;;;5075789;28;20055;-56
2022/05/29 10:52:11;;;;;;;5.28;1.73;;;12.60;99.90;;;;;;5053002;28;20048;-58
2022/05/29 10:54:39;;;;;;;6.57;2.53;;;12.70;99.90;;;;;;5073892;28;20062;-56
2022/05/29 10:57:25;;;;;;;8.32;1.73;;;12.70;99.90;;;;;;5076385;28;20402;-57
2022/05/29 11:00:13;;;;;;;4.55;1.08;;;13.00;99.90;;;;;;5086890;28;20055;-57
2022/05/29 11:05:58;;;;;;;5.95;1.40;;;14.10;99.90;;;;;;5068023;28;20052;-61
2022/05/29 11:08:43;;;;;;;2.47;0.70;;;14.80;99.90;;;;;;5068992;28;20044;-61
2022/05/29 11:11:31;;;;;;;7.47;1.90;;;15.10;99.90;;;;;;5048146;28;20545;-58
2022/05/29 11:14:19;;;;;;;5.03;1.17;;;15.10;99.90;;;;;;5070401;28;20058;-56
2022/05/29 11:17:11;;;;;;;8.57;2.28;;;14.80;99.90;;;;;;5076371;28;20420;-55
2022/05/29 11:20:12;;;;;;;4.55;1.10;;;14.40;99.90;;;;;;5072240;28;20044;-60
2022/05/29 11:23:03;;;;;;;4.70;1.33;;;13.90;99.90;;;;;;5069336;28;20056;-59
2022/05/29 11:25:43;;;;;;;2.78;1.10;;;13.50;99.90;;;;;;5025395;28;20051;-59
2022/05/29 11:28:39;;;;;;;4.82;1.33;;;13.20;99.90;;;;;;5058577;28;20067;-59
2022/05/29 11:31:42;;;;;;;5.05;1.60;;;13.00;99.90;;;;;;5054465;28;21239;-55
2022/05/29 11:34:30;;;;;;;5.68;1.48;;;13.20;99.90;;;;;;5059492;28;20435;-54
2022/05/29 11:37:22;;;;;;;8.07;3.55;;;13.20;99.90;;;;;;5060285;28;20045;-57
2022/05/29 11:40:04;;;;;;;4.68;1.63;;;13.30;99.90;;;;;;5056719;28;20139;-57
2022/05/29 11:42:48;;;;;;;;;;;13.40;99.90;;;;;;5057550;28;20088;-57
2022/05/29 11:45:19;;;;;;;5.70;1.85;;;13.70;99.90;;;;;;5057037;28;19927;-58
2022/05/29 11:51:11;;;;;;;4.20;1.35;;;14.30;99.90;;;;;;5060581;28;20048;-58
2022/05/29 11:54:02;;;;;;;9.60;4.70;;;14.60;99.90;;;;;;5059508;28;20099;-58
2022/05/29 11:56:38;;;;;;;4.35;1.45;;;15.00;99.90;;;;;;5043198;28;20041;-58
2022/05/29 11:59:11;;;;;;;4.22;1.02;;;15.20;99.90;;;;;;5056986;28;20442;-58
2022/05/29 12:02:03;;;;;;;5.30;0.93;;;15.00;99.90;;;;;;5043550;28;20047;-57
2022/05/29 12:04:38;;;;;;;5.18;1.13;;;14.90;99.90;;;;;;5063526;28;20049;-58
2022/05/29 12:07:15;;;;;;;7.53;1.35;;;14.90;99.90;;;;;;5061076;28;20052;-58
2022/05/29 12:09:51;;;;;;;9.40;3.75;;;14.50;99.90;;;;;;5060007;28;20499;-59
2022/05/29 12:12:24;;;;;;;7.40;1.92;;;14.30;99.90;;;;;;5062274;28;20113;-58
2022/05/29 12:14:56;;;;;;;6.28;1.98;;;14.10;99.90;;;;;;5027462;28;20049;-58
2022/05/29 12:17:39;;;;;;;8.07;1.92;;;13.70;99.90;;;;;;5043692;28;20403;-57
2022/05/29 12:20:14;;;;;;;7.35;1.95;;;13.20;99.90;;;;;;5057760;28;20471;-58
2022/05/29 12:22:56;;;;;;;12.32;3.83;;;13.10;99.90;;;;;;5057481;28;20555;-58
2022/05/29 12:25:39;;;;;;;6.90;2.67;;;13.00;99.90;;;;;;5039611;28;20052;-61
2022/05/29 12:28:15;;;;;;;6.97;2.42;;;13.00;99.90;;;;;;5040411;28;20075;-61
2022/05/29 12:30:46;;;;;;;7.50;2.08;;;13.10;99.90;;;;;;5053386;28;20074;-60
2022/05/29 12:33:22;;;;;;;7.18;1.88;;;13.30;99.90;;;;;;5052095;28;20063;-60
2022/05/29 12:35:51;;;;;;;6.22;1.25;;;13.70;99.90;;;;;;5064907;28;20046;-61
2022/05/29 12:38:52;;;;;;;12.05;3.85;;;13.80;99.90;;;;;;5055065;28;20053;-60
2022/05/29 12:41:30;;;;;;;5.90;1.63;;;14.20;99.90;;;;;;5034006;28;20666;-61
2022/05/29 12:44:27;;;;;;;8.73;1.85;;;14.60;99.90;;;;;;5059651;28;20041;-61
2022/05/29 12:47:22;;;;;;;7.68;1.73;;;14.90;99.90;;;;;;5055813;28;20041;-61
2022/05/29 12:50:00;;;;;;;8.48;3.10;;;15.20;99.90;;;;;;5057923;28;20126;-61
2022/05/29 12:52:57;;;;;;;6.72;1.83;;;15.50;99.90;;;;;;5058050;28;20053;-61
2022/05/29 12:55:56;;;;;;;6.32;1.60;;;15.30;99.90;;;;;;5057864;28;20138;-60
2022/05/29 12:58:22;;;;;;;6.40;1.45;;;15.10;99.90;;;;;;5030995;28;20730;-62
2022/05/29 13:01:19;;;;;;;8.15;1.70;;;14.80;99.90;;;;;;5061718;28;20514;-58
2022/05/29 13:04:22;;;;;;;10.82;2.70;;;14.60;99.90;;;;;;5056214;28;20045;-58
2022/05/29 13:07:16;;;;;;;12.27;2.45;;;14.20;99.90;;;;;;5056224;28;20052;-62
2022/05/29 13:10:06;;;;;;;9.00;2.63;;;14.10;99.90;;;;;;5059047;28;20048;-58
2022/05/29 13:12:52;;;;;;;6.75;2.05;;;13.90;99.90;;;;;;5058967;28;20059;-59
2022/05/29 13:15:27;;;;;;;10.68;4.10;;;13.70;99.90;;;;;;5059605;28;20550;-57
2022/05/29 13:18:07;;;;;;;7.15;2.03;;;13.60;99.90;;;;;;5042750;28;20064;-56
2022/05/29 13:21:04;;;;;;;11.63;2.45;;;13.70;99.90;;;;;;5054521;28;20127;-58
2022/05/29 13:23:46;;;;;;;8.63;1.83;;;13.50;99.90;;;;;;5057528;28;20155;-58
2022/05/29 13:26:20;;;;;;;7.75;1.75;;;13.50;99.90;;;;;;5060703;28;20511;-58
2022/05/29 13:28:59;;;;;;;9.90;2.85;;;13.60;99.90;;;;;;5058501;28;20055;-58
2022/05/29 13:31:27;;;;;;;7.43;1.92;;;13.80;99.90;;;;;;5056448;28;20044;-58
2022/05/29 13:34:21;;;;;;;6.85;1.52;;;13.80;99.90;;;;;;5060858;28;20047;-58
2022/05/29 13:36:49;;;;;;;7.50;1.70;;;13.90;99.90;;;;;;5054653;28;20055;-62
2022/05/29 13:39:24;;;;;;;15.35;6.35;;;13.90;99.90;;;;;;5054523;28;20143;-60
2022/05/29 13:41:59;;;;;;;10.07;2.67;;;14.00;99.90;;;;;;5075024;28;20602;-58
2022/05/29 13:44:35;;;;;;;11.35;3.92;;;14.10;99.90;;;;;;5057357;28;20044;-58
2022/05/29 13:47:23;;;;;;;14.88;5.07;;;14.30;99.90;;;;;;5071354;28;20630;-58
2022/05/29 13:50:01;;;;;;;8.02;2.15;;;14.20;99.90;;;;;;5043537;28;20141;-53
2022/05/29 13:52:32;;;;;;;7.95;2.00;;;14.30;99.90;;;;;;5055531;28;20462;-56
2022/05/29 13:55:08;;;;;;;10.48;2.08;;;14.30;99.90;;;;;;5058159;28;20582;-56
2022/05/29 14:04:04;;;;;;;14.93;2.67;;;14.00;99.90;;;;;;5075776;28;20109;-57
2022/05/29 14:06:42;;;;;;;7.15;1.67;;;13.80;99.90;;;;;;5061303;28;20040;-56
2022/05/29 14:09:31;;;;;;;7.00;1.95;;;13.80;99.90;;;;;;5043404;28;20048;-56
2022/05/29 14:12:18;;;;;;;9.48;4.65;;;13.60;99.90;;;;;;5060280;28;20052;-56
2022/05/29 14:14:54;;;;;;;8.13;4.03;;;13.60;99.90;;;;;;5010126;28;20049;-56
2022/05/29 14:17:26;;;;;;;16.40;10.88;;;13.80;99.90;;;;;;5060062;28;20640;-56
2022/05/29 14:20:10;;;;;;;10.90;2.15;;;13.80;99.90;;;;;;5055729;28;20519;-56
2022/05/29 14:22:58;;;;;;;14.05;6.43;;;13.70;99.90;;;;;;5058194;28;20387;-57
2022/05/29 14:25:36;;;;;;;14.07;3.42;;;13.80;99.90;;;;;;5043402;28;20040;-57
2022/05/29 14:28:22;;;;;;;7.70;2.55;;;13.80;99.90;;;;;;5055588;28;20055;-56
2022/05/29 14:31:13;;;;;;;9.35;2.13;;;14.00;99.90;;;;;;5059139;28;20584;-56
2022/05/29 14:34:13;;;;;;;9.15;2.30;;;13.80;99.90;;;;;;5056832;28;20554;-57
2022/05/29 14:36:42;;;;;;;9.57;3.00;;;13.70;99.90;;;;;;5039082;28;20567;-56
2022/05/29 14:39:30;;;;;;;10.52;4.25;;;13.70;99.90;;;;;;5054545;28;20523;-56
2022/05/29 14:42:05;;;;;;;14.38;5.30;;;13.50;99.90;;;;;;5041477;28;20049;-56
2022/05/29 14:44:42;;;;;;;10.73;3.03;;;13.40;99.90;;;;;;5078414;28;20049;-56
2022/05/29 14:47:24;;;;;;;12.68;3.00;;;13.10;99.90;;;;;;5020563;28;20514;-57
2022/05/29 14:50:02;;;;;;;;;;;13.00;99.90;;;;;;5043245;28;20131;-55
2022/05/29 14:52:47;;;;;;;10.88;5.07;;;13.00;99.90;;;;;;5041518;28;20098;-57
2022/05/29 14:55:16;;;;;;;8.77;3.13;;;12.80;99.90;;;;;;5059002;28;20445;-57
2022/05/29 14:58:00;;;;;;;10.35;2.40;;;12.70;99.90;;;;;;5056402;28;20048;-58
2022/05/29 15:00:41;;;;;;;11.02;2.42;;;12.60;99.90;;;;;;5064478;28;20119;-60
2022/05/29 15:03:23;;;;;;;12.70;2.83;;;12.50;99.90;;;;;;5060607;28;20056;-59
2022/05/29 15:05:52;;;;;;;14.85;8.38;;;12.60;99.90;;;;;;5062309;28;20048;-60
2022/05/29 15:11:15;;;;;;;9.43;1.83;;;12.70;99.90;;;;;;5061963;28;20037;-60
2022/05/29 15:13:56;;;;;;;7.82;3.40;;;12.70;99.90;;;;;;5040730;28;20087;-60
2022/05/29 15:16:44;;;;;;;8.82;1.80;;;12.90;99.90;;;;;;5041049;28;20040;-60
2022/05/29 15:25:18;;;;;;;10.25;2.10;;;13.20;99.90;;;;;;5058734;28;20048;-60
2022/05/29 15:27:47;;;;;;;5.72;1.77;;;13.30;99.90;;;;;;5059492;28;20681;-62
2022/05/29 15:30:21;;;;;;;9.82;3.42;;;13.30;99.90;;;;;;5063479;28;20044;-60
2022/05/29 15:32:55;;;;;;;9.38;2.65;;;13.30;99.90;;;;;;5059556;28;20053;-60
2022/05/29 15:35:53;;;;;;;12.18;2.85;;;13.30;99.90;;;;;;5043479;28;20067;-60
2022/05/29 15:38:50;;;;;;;12.38;2.15;;;13.40;99.90;;;;;;5055730;28;20045;-60
2022/05/29 15:41:26;;;;;;;12.98;2.60;;;13.60;99.90;;;;;;5041193;28;20040;-60
2022/05/29 15:44:01;;;;;;;9.13;4.82;;;13.60;99.90;;;;;;5024883;28;20503;-60
2022/05/29 15:47:05;;;;;;;6.45;2.15;;;13.50;99.90;;;;;;5061795;28;20072;-62
2022/05/29 15:49:54;;;;;;;7.93;3.22;;;13.70;99.90;;;;;;5075276;28;20127;-60